createdAt,value
2022-07-28T00:01:23.371Z,101849.66
2022-07-28T00:03:49.854Z,101853.22
2022-07-28T00:06:16.781Z,101856.84
2022-07-28T00:08:43.166Z,101849.88
2022-07-28T00:11:09.563Z,101849.91
2022-07-28T00:13:36.113Z,101836.81
2022-07-28T00:16:03.016Z,101845.66
2022-07-28T00:18:29.462Z,101848.44
2022-07-28T00:20:56.631Z,101844.97
2022-07-28T00:23:23.096Z,101845.97
2022-07-28T00:26:05.392Z,101846.84
2022-07-28T00:28:31.908Z,101845.19
2022-07-28T00:30:58.365Z,101844.44
2022-07-28T00:33:32.041Z,101845.38
2022-07-28T00:35:58.434Z,101852.44
2022-07-28T00:38:26.236Z,101847.25
2022-07-28T00:41:11.305Z,101848.22
2022-07-28T00:43:43.873Z,101843.03
2022-07-28T00:46:11.239Z,101843.94
2022-07-28T00:48:39.462Z,101839.66
2022-07-28T00:51:09.198Z,101847.63
2022-07-28T00:53:37.360Z,101851.19
2022-07-28T00:56:06.595Z,101846.78
2022-07-28T00:58:37.331Z,101845.97
2022-07-28T01:01:05.537Z,101846.91
2022-07-28T01:03:32.672Z,101842.66
2022-07-28T01:05:58.975Z,101850.56
2022-07-28T01:08:38.834Z,101843.75
2022-07-28T01:11:12.791Z,101841.97
2022-07-28T01:13:49.915Z,101837.63
2022-07-28T01:16:16.482Z,101835.91
2022-07-28T01:19:01.609Z,101843.97
2022-07-28T01:21:35.666Z,101851.03
2022-07-28T01:24:24.909Z,101840.56
2022-07-28T01:27:07.312Z,101845.88
2022-07-28T01:29:51.781Z,101860.00
2022-07-28T01:32:39.117Z,101857.47
2022-07-28T01:35:28.989Z,101854.03
2022-07-28T01:37:59.864Z,101855.75
2022-07-28T01:40:30.875Z,101858.44
2022-07-28T01:43:00.688Z,101856.78
2022-07-28T01:45:28.753Z,101855.91
2022-07-28T01:47:59.453Z,101860.38
2022-07-28T01:50:28.178Z,101859.50
2022-07-28T01:52:56.825Z,101866.53
2022-07-28T01:55:25.759Z,101862.16
2022-07-28T01:57:55.626Z,101863.81
2022-07-28T02:00:24.167Z,101869.91
2022-07-28T02:02:52.750Z,101862.75
2022-07-28T02:05:22.175Z,101862.63
2022-07-28T02:07:50.594Z,101853.72
2022-07-28T02:10:18.494Z,101865.88
2022-07-28T02:12:47.325Z,101860.50
2022-07-28T02:15:15.761Z,101857.78
2022-07-28T02:17:44.890Z,101854.13
2022-07-28T02:20:13.336Z,101857.56
2022-07-28T02:22:41.101Z,101858.34
2022-07-28T02:25:08.238Z,101853.88
2022-07-28T02:27:34.634Z,101852.91
2022-07-28T02:30:14.480Z,101846.75
2022-07-28T02:32:50.298Z,101849.28
2022-07-28T02:35:44.684Z,101851.81
2022-07-28T02:38:20.048Z,101848.25
2022-07-28T02:40:49.839Z,101852.66
2022-07-28T02:43:24.247Z,101851.72
2022-07-28T02:45:53.446Z,101853.50
2022-07-28T02:48:26.232Z,101853.53
2022-07-28T02:50:56.564Z,101860.59
2022-07-28T02:53:24.422Z,101858.00
2022-07-28T02:55:52.537Z,101860.66
2022-07-28T02:58:21.643Z,101859.78
2022-07-28T03:00:53.052Z,101859.84
2022-07-28T03:03:19.944Z,101858.06
2022-07-28T03:05:47.646Z,101863.34
2022-07-28T03:08:15.985Z,101859.91
2022-07-28T03:10:42.842Z,101869.53
2022-07-28T03:13:09.540Z,101869.53
2022-07-28T03:15:37.480Z,101869.59
2022-07-28T03:18:04.984Z,101867.81
2022-07-28T03:20:31.996Z,101875.72
2022-07-28T03:22:59.040Z,101879.22
2022-07-28T03:25:43.625Z,101881.00
2022-07-28T03:28:15.072Z,101881.75
2022-07-28T03:30:45.122Z,101885.25
2022-07-28T03:33:12.436Z,101895.75
2022-07-28T03:35:41.184Z,101893.94
2022-07-28T03:38:13.408Z,101894.81
2022-07-28T03:40:42.268Z,101899.97
2022-07-28T03:43:14.753Z,101901.69
2022-07-28T03:45:41.597Z,101890.22
2022-07-28T03:48:13.955Z,101889.28
2022-07-28T03:50:40.392Z,101897.09
2022-07-28T03:53:24.308Z,101892.63
2022-07-28T03:55:51.058Z,101892.47
2022-07-28T03:58:26.311Z,101899.41
2022-07-28T04:00:55.354Z,101896.66
2022-07-28T04:03:36.538Z,101900.94
2022-07-28T04:06:08.593Z,101900.78
2022-07-28T04:08:35.517Z,101904.25
2022-07-28T04:11:02.750Z,101897.13
2022-07-28T04:13:31.790Z,101902.31
2022-07-28T04:15:59.327Z,101896.06
2022-07-28T04:18:25.859Z,101901.19
2022-07-28T04:20:52.425Z,101907.22
2022-07-28T04:23:20.553Z,101898.28
2022-07-28T04:25:47.041Z,101897.31
2022-07-28T04:28:13.538Z,101894.56
2022-07-28T04:30:43.988Z,101898.88
2022-07-28T04:33:11.080Z,101899.72
2022-07-28T04:35:37.905Z,101900.44
2022-07-28T04:38:04.592Z,101899.44
2022-07-28T04:40:31.023Z,101898.41
2022-07-28T04:42:57.465Z,101903.41
2022-07-28T04:45:23.975Z,101906.78
2022-07-28T04:47:51.760Z,101907.56
2022-07-28T04:50:20.654Z,101911.94
2022-07-28T04:52:49.252Z,101905.72
2022-07-28T04:55:16.678Z,101897.81
2022-07-28T04:57:43.635Z,101907.50
2022-07-28T05:00:13.773Z,101909.22
2022-07-28T05:02:45.013Z,101903.88
2022-07-28T05:05:12.601Z,101904.59
2022-07-28T05:07:40.560Z,101908.03
2022-07-28T05:10:09.339Z,101903.56
2022-07-28T05:12:35.960Z,101904.19
2022-07-28T05:15:02.513Z,101905.69
2022-07-28T05:17:28.918Z,101907.28
2022-07-28T05:19:55.386Z,101911.47
2022-07-28T05:22:22.024Z,101906.88
2022-07-28T05:24:48.585Z,101903.22
2022-07-28T05:27:14.975Z,101912.75
2022-07-28T05:29:46.821Z,101914.38
2022-07-28T05:32:16.559Z,101913.31
2022-07-28T05:34:45.752Z,101917.47
2022-07-28T05:37:12.475Z,101913.75
2022-07-28T05:39:39.066Z,101916.31
2022-07-28T05:42:05.982Z,101920.47
2022-07-28T05:44:37.554Z,101929.91
2022-07-28T05:47:05.537Z,101929.81
2022-07-28T05:49:32.033Z,101933.25
2022-07-28T05:51:58.575Z,101926.97
2022-07-28T05:54:25.034Z,101925.94
2022-07-28T05:56:52.549Z,101936.25
2022-07-28T05:59:19.178Z,101935.94
2022-07-28T06:01:46.033Z,101934.69
2022-07-28T06:04:29.392Z,101931.63
2022-07-28T06:06:56.760Z,101932.91
2022-07-28T06:09:23.488Z,101929.94
2022-07-28T06:11:50.673Z,101928.22
2022-07-28T06:14:18.205Z,101926.31
2022-07-28T06:16:45.126Z,101921.88
2022-07-28T06:19:11.687Z,101922.53
2022-07-28T06:21:38.237Z,101926.78
2022-07-28T06:24:05.253Z,101922.22
2022-07-28T06:26:31.682Z,101923.75
2022-07-28T06:28:58.179Z,101933.59
2022-07-28T06:31:24.712Z,101934.06
2022-07-28T06:33:51.226Z,101938.25
2022-07-28T06:36:17.758Z,101934.28
2022-07-28T06:38:44.282Z,101942.84
2022-07-28T06:41:10.765Z,101937.31
2022-07-28T06:43:39.245Z,101936.06
2022-07-28T06:46:06.315Z,101941.09
2022-07-28T06:48:33.267Z,101946.00
2022-07-28T06:50:59.943Z,101941.97
2022-07-28T06:53:28.104Z,101940.91
2022-07-28T06:56:00.757Z,101941.31
2022-07-28T06:58:27.222Z,101940.94
2022-07-28T07:00:54.769Z,101943.25
2022-07-28T07:03:21.525Z,101944.66
2022-07-28T07:05:49.061Z,101944.34
2022-07-28T07:08:20.767Z,101950.03
2022-07-28T07:10:47.475Z,101947.66
2022-07-28T07:13:14.111Z,101941.44
2022-07-28T07:15:40.683Z,101946.59
2022-07-28T07:18:07.373Z,101945.44
2022-07-28T07:20:33.923Z,101944.22
2022-07-28T07:23:00.571Z,101944.34
2022-07-28T07:25:27.210Z,101940.66
2022-07-28T07:27:53.744Z,101947.66
2022-07-28T07:30:20.266Z,101952.28
2022-07-28T07:32:46.908Z,101953.38
2022-07-28T07:35:13.364Z,101948.69
2022-07-28T07:37:40.496Z,101954.16
2022-07-28T07:40:08.024Z,101949.44
2022-07-28T07:42:34.780Z,101951.16
2022-07-28T07:45:01.522Z,101949.28
2022-07-28T07:47:28.387Z,101953.38
2022-07-28T07:49:54.879Z,101950.03
2022-07-28T07:52:21.453Z,101948.84
2022-07-28T07:54:47.936Z,101963.06
2022-07-28T07:57:14.483Z,101962.13
2022-07-28T07:59:40.989Z,101961.13
2022-07-28T08:02:07.621Z,101950.94
2022-07-28T08:04:37.606Z,101945.91
2022-07-28T08:07:05.962Z,101950.78
2022-07-28T08:09:33.323Z,101946.19
2022-07-28T08:11:59.970Z,101953.16
2022-07-28T08:14:26.784Z,101946.88
2022-07-28T08:16:54.216Z,101948.06
2022-07-28T08:19:21.676Z,101954.00
2022-07-28T08:21:48.432Z,101950.97
2022-07-28T08:24:27.724Z,101955.63
2022-07-28T08:27:04.481Z,101947.13
2022-07-28T08:29:31.380Z,101951.28
2022-07-28T08:31:58.278Z,101953.84
2022-07-28T08:34:31.099Z,101947.91
2022-07-28T08:37:02.215Z,101951.25
2022-07-28T08:39:29.566Z,101951.75
2022-07-28T08:42:07.749Z,101957.78
2022-07-28T08:44:57.632Z,101955.09
2022-07-28T08:47:35.664Z,101956.41
2022-07-28T08:50:07.537Z,101950.91
2022-07-28T08:52:34.755Z,101949.03
2022-07-28T08:55:07.447Z,101952.47
2022-07-28T08:57:34.913Z,101953.28
2022-07-28T09:00:01.462Z,101952.31
2022-07-28T09:02:30.819Z,101944.94
2022-07-28T09:04:59.127Z,101948.31
2022-07-28T09:07:27.125Z,101941.94
2022-07-28T09:09:57.308Z,101941.69
2022-07-28T09:12:29.188Z,101936.69
2022-07-28T09:14:55.665Z,101944.28
2022-07-28T09:17:22.161Z,101941.59
2022-07-28T09:19:48.820Z,101931.31
2022-07-28T09:22:15.229Z,101930.53
2022-07-28T09:24:44.802Z,101927.56
2022-07-28T09:27:14.202Z,101930.19
2022-07-28T09:29:45.710Z,101931.97
2022-07-28T09:32:19.141Z,101926.88
2022-07-28T09:34:47.852Z,101924.50
2022-07-28T09:37:27.119Z,101935.50
2022-07-28T09:39:59.669Z,101929.34
2022-07-28T09:42:26.378Z,101937.19
2022-07-28T09:45:24.387Z,101928.56
2022-07-28T09:48:10.119Z,101935.69
2022-07-28T09:50:37.531Z,101936.66
2022-07-28T09:53:33.261Z,101936.75
2022-07-28T09:56:01.759Z,101944.25
2022-07-28T09:58:30.487Z,101935.25
2022-07-28T10:01:15.572Z,101943.91
2022-07-28T10:03:50.119Z,101932.19
2022-07-28T10:06:24.253Z,101938.84
2022-07-28T10:08:51.989Z,101939.91
2022-07-28T10:11:20.796Z,101939.59
2022-07-28T10:14:03.018Z,101938.66
2022-07-28T10:16:34.087Z,101938.28
2022-07-28T10:19:02.958Z,101937.19
2022-07-28T10:21:33.469Z,101945.25
2022-07-28T10:24:05.055Z,101941.88
2022-07-28T10:26:32.872Z,101944.47
2022-07-28T10:29:04.362Z,101950.88
2022-07-28T10:31:52.547Z,101948.53
2022-07-28T10:34:25.369Z,101941.50
2022-07-28T10:36:55.480Z,101942.34
2022-07-28T10:39:25.161Z,101942.44
2022-07-28T10:41:52.230Z,101939.81
2022-07-28T10:44:20.089Z,101942.34
2022-07-28T10:46:47.027Z,101942.25
2022-07-28T10:49:15.198Z,101938.03
2022-07-28T10:52:02.192Z,101945.00
2022-07-28T10:54:30.727Z,101941.81
2022-07-28T10:56:59.847Z,101936.09
2022-07-28T10:59:58.662Z,101935.63
2022-07-28T11:02:45.321Z,101942.06
2022-07-28T11:05:30.302Z,101932.69
2022-07-28T11:08:01.125Z,101938.94
2022-07-28T11:10:29.349Z,101933.56
2022-07-28T11:12:58.327Z,101935.94
2022-07-28T11:15:32.061Z,101933.13
2022-07-28T11:18:09.557Z,101933.69
2022-07-28T11:20:58.595Z,101935.41
2022-07-28T11:23:53.686Z,101937.75
2022-07-28T11:26:27.611Z,101937.22
2022-07-28T11:29:00.130Z,101930.25
2022-07-28T11:31:45.338Z,101934.28
2022-07-28T11:34:18.786Z,101928.88
2022-07-28T11:37:03.593Z,101930.53
2022-07-28T11:39:43.078Z,101924.53
2022-07-28T11:42:30.960Z,101930.34
2022-07-28T11:45:37.466Z,101927.47
2022-07-28T11:48:22.220Z,101924.75
2022-07-28T11:51:03.904Z,101922.63
2022-07-28T11:53:43.570Z,101923.28
2022-07-28T11:56:16.057Z,101914.59
2022-07-28T11:58:43.371Z,101915.53
2022-07-28T12:01:17.292Z,101914.88
2022-07-28T12:03:50.421Z,101912.09
2022-07-28T12:06:29.242Z,101915.16
2022-07-28T12:09:02.144Z,101905.34
2022-07-28T12:11:33.142Z,101909.28
2022-07-28T12:14:06.432Z,101908.78
2022-07-28T12:16:35.555Z,101904.25
2022-07-28T12:19:04.004Z,101907.13
2022-07-28T12:21:48.289Z,101901.50
2022-07-28T12:24:18.720Z,101907.94
2022-07-28T12:26:49.238Z,101903.28
2022-07-28T12:29:16.701Z,101902.16
2022-07-28T12:31:54.270Z,101903.41
2022-07-28T12:34:21.927Z,101899.72
2022-07-28T12:36:56.975Z,101906.97
2022-07-28T12:39:25.628Z,101908.84
2022-07-28T12:42:05.327Z,101905.03
2022-07-28T12:44:36.100Z,101900.56
2022-07-28T12:47:04.432Z,101897.47
2022-07-28T12:49:30.869Z,101891.06
2022-07-28T12:51:59.067Z,101900.16
2022-07-28T12:54:36.556Z,101901.72
2022-07-28T12:57:03.880Z,101898.56
2022-07-28T12:59:35.426Z,101902.00
2022-07-28T13:02:02.930Z,101896.16
2022-07-28T13:04:46.898Z,101887.81
2022-07-28T13:07:33.919Z,101899.09
2022-07-28T13:10:03.598Z,101891.59
2022-07-28T13:12:34.236Z,101900.84
2022-07-28T13:15:03.587Z,101891.94
2022-07-28T13:17:48.976Z,101902.38
2022-07-28T13:20:16.815Z,101896.81
2022-07-28T13:22:46.670Z,101898.47
2022-07-28T13:25:14.413Z,101890.41
2022-07-28T13:27:41.171Z,101888.28
2022-07-28T13:30:11.265Z,101881.69
2022-07-28T13:32:37.977Z,101888.22
2022-07-28T13:35:05.622Z,101882.00
2022-07-28T13:37:32.148Z,101889.16
2022-07-28T13:40:00.641Z,101880.19
2022-07-28T13:42:30.292Z,101882.56
2022-07-28T13:44:56.723Z,101872.72
2022-07-28T13:47:24.290Z,101871.94
2022-07-28T13:49:50.823Z,101865.59
2022-07-28T13:52:32.750Z,101882.38
2022-07-28T13:54:59.759Z,101876.44
2022-07-28T13:57:30.907Z,101866.88
2022-07-28T13:59:57.359Z,101867.97
2022-07-28T14:02:26.041Z,101865.59
2022-07-28T14:04:52.708Z,101863.22
2022-07-28T14:07:20.771Z,101864.28
2022-07-28T14:09:48.003Z,101864.63
2022-07-28T14:12:14.447Z,101861.63
2022-07-28T14:14:48.426Z,101857.84
2022-07-28T14:17:40.140Z,101853.38
2022-07-28T14:20:04.368Z,101853.03
2022-07-28T14:22:30.776Z,101855.84
2022-07-28T14:24:57.320Z,101849.72
2022-07-28T14:27:28.984Z,101843.50
2022-07-28T14:29:55.782Z,101847.91
2022-07-28T14:32:22.639Z,101850.31
2022-07-28T14:34:49.116Z,101842.44
2022-07-28T14:37:15.651Z,101845.94
2022-07-28T14:39:42.232Z,101843.59
2022-07-28T14:42:10.351Z,101840.03
2022-07-28T14:44:36.976Z,101843.72
2022-07-28T14:47:04.061Z,101839.34
2022-07-28T14:49:31.592Z,101843.38
2022-07-28T14:51:59.209Z,101842.16
2022-07-28T14:54:26.004Z,101840.44
2022-07-28T14:56:52.441Z,101833.94
2022-07-28T14:59:18.920Z,101834.34
2022-07-28T15:01:47.264Z,101831.00
2022-07-28T15:04:16.250Z,101828.44
2022-07-28T15:06:43.209Z,101818.94
2022-07-28T15:09:09.940Z,101825.28
2022-07-28T15:11:37.398Z,101826.81
2022-07-28T15:14:04.502Z,101824.53
2022-07-28T15:16:31.305Z,101822.63
2022-07-28T15:18:58.288Z,101820.91
2022-07-28T15:21:25.019Z,101830.06
2022-07-28T15:23:51.909Z,101821.97
2022-07-28T15:26:18.438Z,101821.31
2022-07-28T15:28:48.282Z,101819.88
2022-07-28T15:31:15.692Z,101817.31
2022-07-28T15:33:48.372Z,101813.19
2022-07-28T15:36:21.909Z,101814.34
2022-07-28T15:38:48.926Z,101811.78
2022-07-28T15:41:18.516Z,101809.66
2022-07-28T15:43:45.309Z,101803.53
2022-07-28T15:46:13.352Z,101809.81
2022-07-28T15:48:41.802Z,101809.81
2022-07-28T15:51:09.198Z,101806.31
2022-07-28T15:53:36.798Z,101810.78
2022-07-28T15:56:04.320Z,101809.06
2022-07-28T15:58:31.320Z,101805.72
2022-07-28T16:01:00.902Z,101809.50
2022-07-28T16:03:29.361Z,101796.75
2022-07-28T16:05:56.614Z,101788.09
2022-07-28T16:08:23.404Z,101798.03
2022-07-28T16:10:52.297Z,101796.41
2022-07-28T16:13:32.205Z,101797.19
2022-07-28T16:16:08.836Z,101798.44
2022-07-28T16:18:37.049Z,101797.81
2022-07-28T16:21:04.229Z,101793.47
2022-07-28T16:23:30.758Z,101797.31
2022-07-28T16:25:57.466Z,101799.34
2022-07-28T16:28:24.000Z,101797.00
2022-07-28T16:30:50.908Z,101801.66
2022-07-28T16:33:17.416Z,101798.34
2022-07-28T16:35:44.135Z,101793.22
2022-07-28T16:38:11.508Z,101788.06
2022-07-28T16:40:38.331Z,101790.13
2022-07-28T16:43:06.192Z,101791.66
2022-07-28T16:45:37.151Z,101787.94
2022-07-28T16:48:04.129Z,101792.97
2022-07-28T16:50:32.287Z,101793.75
2022-07-28T16:52:59.511Z,101793.44
2022-07-28T16:55:26.475Z,101792.22
2022-07-28T16:57:53.489Z,101795.75
2022-07-28T17:00:21.281Z,101789.16
2022-07-28T17:02:47.746Z,101798.53
2022-07-28T17:05:14.183Z,101794.63
2022-07-28T17:07:45.926Z,101791.94
2022-07-28T17:10:14.745Z,101791.47
2022-07-28T17:12:41.733Z,101787.34
2022-07-28T17:15:22.883Z,101793.34
2022-07-28T17:17:54.162Z,101796.97
2022-07-28T17:20:20.949Z,101792.47
2022-07-28T17:22:47.970Z,101790.28
2022-07-28T17:28:01.301Z,101786.66
2022-07-28T17:30:30.310Z,101788.72
2022-07-28T17:32:58.762Z,101800.59
2022-07-28T17:35:34.171Z,101785.94
2022-07-28T17:38:03.608Z,101788.81
2022-07-28T17:40:30.452Z,101786.16
2022-07-28T17:42:57.102Z,101779.13
2022-07-28T17:45:24.351Z,101788.59
2022-07-28T17:47:51.296Z,101792.84
2022-07-28T17:50:18.308Z,101795.13
2022-07-28T17:52:45.608Z,101792.06
2022-07-28T17:55:32.766Z,101796.16
2022-07-28T17:58:12.575Z,101799.34
2022-07-28T18:00:46.992Z,101798.84
2022-07-28T18:03:13.848Z,101793.97
2022-07-28T18:05:42.415Z,101795.28
2022-07-28T18:08:09.847Z,101796.56
2022-07-28T18:10:37.800Z,101794.38
2022-07-28T18:13:05.150Z,101797.38
2022-07-28T18:15:32.543Z,101795.13
2022-07-28T18:17:59.798Z,101801.56
2022-07-28T18:20:26.360Z,101801.06
2022-07-28T18:22:53.168Z,101798.66
2022-07-28T18:25:19.779Z,101802.50
2022-07-28T18:27:47.835Z,101803.88
2022-07-28T18:30:15.637Z,101807.78
2022-07-28T18:32:42.027Z,101800.22
2022-07-28T18:35:09.056Z,101801.47
2022-07-28T18:37:35.554Z,101802.66
2022-07-28T18:40:02.579Z,101803.00
2022-07-28T18:42:32.483Z,101805.91
2022-07-28T18:44:59.042Z,101804.31
2022-07-28T18:47:27.923Z,101802.88
2022-07-28T18:49:58.083Z,101809.44
2022-07-28T18:52:25.472Z,101798.19
2022-07-28T18:54:52.838Z,101806.50
2022-07-28T18:57:19.571Z,101800.66
2022-07-28T18:59:50.254Z,101801.75
2022-07-28T19:02:18.866Z,101809.97
2022-07-28T19:04:47.051Z,101808.47
2022-07-28T19:07:15.514Z,101813.97
2022-07-28T19:09:42.664Z,101817.63
2022-07-28T19:12:10.256Z,101812.53
2022-07-28T19:14:38.611Z,101815.31
2022-07-28T19:17:05.658Z,101810.59
2022-07-28T19:19:36.599Z,101813.16
2022-07-28T19:22:08.065Z,101817.63
2022-07-28T19:24:35.171Z,101820.38
2022-07-28T19:27:05.412Z,101820.53
2022-07-28T19:29:32.437Z,101822.34
2022-07-28T19:32:01.862Z,101817.25
2022-07-28T19:34:28.496Z,101816.47
2022-07-28T19:36:56.171Z,101821.97
2022-07-28T19:39:22.640Z,101815.09
2022-07-28T19:41:49.210Z,101818.75
2022-07-28T19:44:16.220Z,101822.50
2022-07-28T19:46:43.046Z,101820.91
2022-07-28T19:49:09.622Z,101825.53
2022-07-28T19:51:36.410Z,101823.91
2022-07-28T19:54:02.866Z,101833.75
2022-07-28T19:56:31.116Z,101830.28
2022-07-28T19:58:58.500Z,101832.16
2022-07-28T20:01:25.087Z,101830.59
2022-07-28T20:04:01.793Z,101835.97
2022-07-28T20:06:31.132Z,101836.13
2022-07-28T20:08:57.918Z,101840.66
2022-07-28T20:11:24.488Z,101838.06
2022-07-28T20:13:51.016Z,101839.06
2022-07-28T20:16:18.081Z,101837.41
2022-07-28T20:18:44.660Z,101845.53
2022-07-28T20:21:11.150Z,101845.75
2022-07-28T20:23:38.821Z,101843.16
2022-07-28T20:26:05.276Z,101841.56
2022-07-28T20:28:31.855Z,101838.22
2022-07-28T20:30:58.351Z,101840.09
2022-07-28T20:33:24.789Z,101842.78
2022-07-28T20:35:53.188Z,101849.13
2022-07-28T20:38:23.210Z,101843.03
2022-07-28T20:40:50.760Z,101837.81
2022-07-28T20:43:17.745Z,101847.59
2022-07-28T20:45:47.305Z,101845.97
2022-07-28T20:48:15.466Z,101846.97
2022-07-28T20:50:42.159Z,101852.34
2022-07-28T20:53:09.981Z,101855.03
2022-07-28T20:55:36.920Z,101860.50
2022-07-28T20:58:03.789Z,101854.47
2022-07-28T21:00:32.403Z,101857.13
2022-07-28T21:02:59.016Z,101856.38
2022-07-28T21:05:26.570Z,101849.44
2022-07-28T21:08:05.718Z,101855.66
2022-07-28T21:10:33.830Z,101857.47
2022-07-28T21:13:00.458Z,101854.06
2022-07-28T21:15:26.886Z,101859.53
2022-07-28T21:17:56.757Z,101865.75
2022-07-28T21:20:24.313Z,101867.63
2022-07-28T21:22:51.102Z,101864.16
2022-07-28T21:25:17.809Z,101873.97
2022-07-28T21:28:03.216Z,101879.34
2022-07-28T21:30:29.854Z,101874.13
2022-07-28T21:32:56.561Z,101877.81
2022-07-28T21:35:23.423Z,101874.38
2022-07-28T21:37:50.185Z,101877.13
2022-07-28T21:40:16.578Z,101884.19
2022-07-28T21:42:46.639Z,101872.81
2022-07-28T21:45:13.142Z,101876.50
2022-07-28T21:47:40.681Z,101870.50
2022-07-28T21:50:07.486Z,101869.69
2022-07-28T21:52:35.762Z,101872.47
2022-07-28T21:55:02.690Z,101872.56
2022-07-28T21:57:29.115Z,101871.75
2022-07-28T21:59:55.565Z,101872.75
2022-07-28T22:02:24.148Z,101874.53
2022-07-28T22:04:51.770Z,101875.47
2022-07-28T22:07:18.248Z,101875.53
2022-07-28T22:09:45.092Z,101878.28
2022-07-28T22:12:11.836Z,101879.28
2022-07-28T22:14:38.482Z,101879.38
2022-07-28T22:17:04.942Z,101878.50
2022-07-28T22:19:31.534Z,101877.72
2022-07-28T22:21:59.017Z,101878.69
2022-07-28T22:24:25.962Z,101882.19
2022-07-28T22:26:52.503Z,101884.91
2022-07-28T22:29:18.936Z,101892.84
2022-07-28T22:31:45.810Z,101889.41
2022-07-28T22:34:13.081Z,101894.78
2022-07-28T22:36:39.739Z,101894.84
2022-07-28T22:39:06.285Z,101894.03
2022-07-28T22:41:32.729Z,101892.38
2022-07-28T22:43:59.193Z,101896.03
2022-07-28T22:46:25.826Z,101894.44
2022-07-28T22:48:52.272Z,101905.94
2022-07-28T22:51:18.870Z,101895.44
2022-07-28T22:53:45.277Z,101899.03
2022-07-28T22:56:11.827Z,101893.78
2022-07-28T22:58:40.012Z,101897.34
2022-07-28T23:01:06.654Z,101901.78
2022-07-28T23:03:33.782Z,101901.06
2022-07-28T23:06:00.837Z,101906.44
2022-07-28T23:08:28.719Z,101900.31
2022-07-28T23:10:55.444Z,101903.03
2022-07-28T23:13:21.856Z,101905.81
2022-07-28T23:15:48.537Z,101906.75
2022-07-28T23:18:14.959Z,101912.91
2022-07-28T23:20:42.412Z,101909.47
2022-07-28T23:23:10.049Z,101898.97
2022-07-28T23:25:39.443Z,101906.13
2022-07-28T23:28:06.536Z,101898.25
2022-07-28T23:30:33.225Z,101900.09
2022-07-28T23:32:59.699Z,101915.09
2022-07-28T23:35:26.241Z,101913.44
2022-07-28T23:37:52.679Z,101918.78
2022-07-28T23:40:19.270Z,101918.88
2022-07-28T23:42:45.741Z,101917.25
2022-07-28T23:45:12.291Z,101917.31
2022-07-28T23:47:38.931Z,101921.81
2022-07-28T23:50:07.333Z,101920.94
2022-07-28T23:52:33.958Z,101915.75
2022-07-28T23:55:00.368Z,101913.19
2022-07-28T23:57:30.908Z,101908.81
2022-07-28T23:59:58.978Z,101913.31
